sensor_id;sensor_type;location;lat;lon;timestamp;temperature;humidity
7598;DHT22;3840;59.32098800;18.06423600;2023-11-19T00:01:40;-2.70;99.90
7598;DHT22;3840;59.32098800;18.06423600;2023-11-19T00:04:06;-2.70;99.90
7598;DHT22;3840;59.32098800;18.06423600;2023-11-19T00:06:31;-2.80;99.90
7598;DHT22;3840;59.32098800;18.06423600;2023-11-19T00:08:57;-2.90;99.90
7598;DHT22;3840;59.32098800;18.06423600;2023-11-19T00:11:23;-3.00;99.90
7598;DHT22;3840;59.32098800;18.06423600;2023-11-19T00:13:48;-2.90;99.90
7598;DHT22;3840;59.32098800;18.06423600;2023-11-19T00:16:14;-3.10;99.90
7598;DHT22;3840;59.32098800;18.06423600;2023-11-19T00:18:41;-3.00;99.90
7598;DHT22;3840;59.32098800;18.06423600;2023-11-19T00:21:07;-3.00;99.90
7598;DHT22;3840;59.32098800;18.06423600;2023-11-19T00:23:35;-3.10;99.90
7598;DHT22;3840;59.32098800;18.06423600;2023-11-19T00:26:00;-3.10;99.90
7598;DHT22;3840;59.32098800;18.06423600;2023-11-19T00:28:26;-3.10;99.90
7598;DHT22;3840;59.32098800;18.06423600;2023-11-19T00:30:52;-3.20;99.90
7598;DHT22;3840;59.32098800;18.06423600;2023-11-19T00:33:18;-3.20;99.90
7598;DHT22;3840;59.32098800;18.06423600;2023-11-19T00:35:44;-3.20;99.90
7598;DHT22;3840;59.32098800;18.06423600;2023-11-19T00:38:09;-3.10;99.90
7598;DHT22;3840;59.32098800;18.06423600;2023-11-19T00:40:35;-2.50;99.90
7598;DHT22;3840;59.32098800;18.06423600;2023-11-19T00:43:00;-3.10;99.90
7598;DHT22;3840;59.32098800;18.06423600;2023-11-19T00:45:26;-3.00;99.90
7598;DHT22;3840;59.32098800;18.06423600;2023-11-19T00:47:52;-2.90;99.90
7598;DHT22;3840;59.32098800;18.06423600;2023-11-19T00:50:18;-2.90;99.90
7598;DHT22;3840;59.32098800;18.06423600;2023-11-19T00:52:43;-2.80;99.90
7598;DHT22;3840;59.32098800;18.06423600;2023-11-19T00:55:09;-2.80;99.90
7598;DHT22;3840;59.32098800;18.06423600;2023-11-19T00:57:36;-2.80;99.90
7598;DHT22;3840;59.32098800;18.06423600;2023-11-19T01:00:03;-2.80;99.90
7598;DHT22;3840;59.32098800;18.06423600;2023-11-19T01:02:36;-2.90;99.90
7598;DHT22;3840;59.32098800;18.06423600;2023-11-19T01:05:02;-2.90;99.90
7598;DHT22;3840;59.32098800;18.06423600;2023-11-19T01:07:27;-2.90;99.90
7598;DHT22;3840;59.32098800;18.06423600;2023-11-19T01:09:53;-2.80;99.90
7598;DHT22;3840;59.32098800;18.06423600;2023-11-19T01:12:19;-3.00;99.90
7598;DHT22;3840;59.32098800;18.06423600;2023-11-19T01:14:45;-3.10;99.90
7598;DHT22;3840;59.32098800;18.06423600;2023-11-19T01:17:10;-3.10;99.90
7598;DHT22;3840;59.32098800;18.06423600;2023-11-19T01:19:36;-3.20;99.90
7598;DHT22;3840;59.32098800;18.06423600;2023-11-19T01:22:02;-3.30;99.90
7598;DHT22;3840;59.32098800;18.06423600;2023-11-19T01:24:27;-3.30;99.90
7598;DHT22;3840;59.32098800;18.06423600;2023-11-19T01:26:54;-3.30;99.90
7598;DHT22;3840;59.32098800;18.06423600;2023-11-19T01:29:19;-3.30;99.90
7598;DHT22;3840;59.32098800;18.06423600;2023-11-19T01:31:46;-3.40;99.90
7598;DHT22;3840;59.32098800;18.06423600;2023-11-19T01:34:16;-3.50;99.90
7598;DHT22;3840;59.32098800;18.06423600;2023-11-19T01:36:42;-3.40;99.90
7598;DHT22;3840;59.32098800;18.06423600;2023-11-19T01:39:08;-3.30;99.90
7598;DHT22;3840;59.32098800;18.06423600;2023-11-19T01:41:37;-3.50;99.90
7598;DHT22;3840;59.32098800;18.06423600;2023-11-19T01:44:06;-3.50;99.90
7598;DHT22;3840;59.32098800;18.06423600;2023-11-19T01:46:32;-3.50;99.90
7598;DHT22;3840;59.32098800;18.06423600;2023-11-19T01:48:58;-3.30;99.90
7598;DHT22;3840;59.32098800;18.06423600;2023-11-19T01:51:24;-3.40;99.90
7598;DHT22;3840;59.32098800;18.06423600;2023-11-19T01:53:50;-3.40;99.90
7598;DHT22;3840;59.32098800;18.06423600;2023-11-19T01:56:17;-3.40;99.90
7598;DHT22;3840;59.32098800;18.06423600;2023-11-19T01:58:48;-3.40;99.90
7598;DHT22;3840;59.32098800;18.06423600;2023-11-19T02:01:15;-3.40;99.90
7598;DHT22;3840;59.32098800;18.06423600;2023-11-19T02:03:41;-3.30;99.90
7598;DHT22;3840;59.32098800;18.06423600;2023-11-19T02:06:07;-3.30;99.90
7598;DHT22;3840;59.32098800;18.06423600;2023-11-19T02:08:33;-3.20;99.90
7598;DHT22;3840;59.32098800;18.06423600;2023-11-19T02:10:58;-3.20;99.90
7598;DHT22;3840;59.32098800;18.06423600;2023-11-19T02:13:25;-3.20;99.90
7598;DHT22;3840;59.32098800;18.06423600;2023-11-19T02:15:52;-3.30;99.90
7598;DHT22;3840;59.32098800;18.06423600;2023-11-19T02:18:22;-3.30;99.90
7598;DHT22;3840;59.32098800;18.06423600;2023-11-19T02:20:51;-3.30;99.90
7598;DHT22;3840;59.32098800;18.06423600;2023-11-19T02:23:18;-3.40;99.90
7598;DHT22;3840;59.32098800;18.06423600;2023-11-19T02:26:17;-3.20;99.90
7598;DHT22;3840;59.32098800;18.06423600;2023-11-19T02:28:40;-3.20;99.90
7598;DHT22;3840;59.32098800;18.06423600;2023-11-19T02:31:07;-3.30;99.90
7598;DHT22;3840;59.32098800;18.06423600;2023-11-19T02:33:37;-3.30;99.90
7598;DHT22;3840;59.32098800;18.06423600;2023-11-19T02:36:07;-3.20;99.90
7598;DHT22;3840;59.32098800;18.06423600;2023-11-19T02:38:37;-3.20;99.90
7598;DHT22;3840;59.32098800;18.06423600;2023-11-19T02:41:06;-3.20;99.90
7598;DHT22;3840;59.32098800;18.06423600;2023-11-19T02:43:32;-3.30;99.90
7598;DHT22;3840;59.32098800;18.06423600;2023-11-19T02:46:01;-3.30;99.90
7598;DHT22;3840;59.32098800;18.06423600;2023-11-19T02:48:26;-3.40;99.90
7598;DHT22;3840;59.32098800;18.06423600;2023-11-19T02:50:52;-3.50;99.90
7598;DHT22;3840;59.32098800;18.06423600;2023-11-19T02:53:18;-3.50;99.90
7598;DHT22;3840;59.32098800;18.06423600;2023-11-19T02:55:47;-3.60;99.90
7598;DHT22;3840;59.32098800;18.06423600;2023-11-19T02:58:15;-3.70;99.90
7598;DHT22;3840;59.32098800;18.06423600;2023-11-19T03:00:49;-3.70;99.90
7598;DHT22;3840;59.32098800;18.06423600;2023-11-19T03:03:27;-3.90;99.90
7598;DHT22;3840;59.32098800;18.06423600;2023-11-19T03:06:04;-3.90;99.90
7598;DHT22;3840;59.32098800;18.06423600;2023-11-19T03:08:30;-3.90;99.90
7598;DHT22;3840;59.32098800;18.06423600;2023-11-19T03:10:56;-3.90;99.90
7598;DHT22;3840;59.32098800;18.06423600;2023-11-19T03:13:21;-3.90;99.90
7598;DHT22;3840;59.32098800;18.06423600;2023-11-19T03:15:47;-3.90;99.90
7598;DHT22;3840;59.32098800;18.06423600;2023-11-19T03:18:13;-4.00;99.90
7598;DHT22;3840;59.32098800;18.06423600;2023-11-19T03:20:38;-3.90;99.90
7598;DHT22;3840;59.32098800;18.06423600;2023-11-19T03:23:04;-4.00;99.90
7598;DHT22;3840;59.32098800;18.06423600;2023-11-19T03:25:31;-4.00;99.90
7598;DHT22;3840;59.32098800;18.06423600;2023-11-19T03:28:02;-4.00;99.90
7598;DHT22;3840;59.32098800;18.06423600;2023-11-19T03:30:29;-4.10;99.90
7598;DHT22;3840;59.32098800;18.06423600;2023-11-19T03:32:56;-4.10;99.90
7598;DHT22;3840;59.32098800;18.06423600;2023-11-19T03:35:23;-4.90;99.90
7598;DHT22;3840;59.32098800;18.06423600;2023-11-19T03:37:49;-4.10;99.90
7598;DHT22;3840;59.32098800;18.06423600;2023-11-19T03:40:15;-4.10;99.90
7598;DHT22;3840;59.32098800;18.06423600;2023-11-19T03:42:41;-4.10;99.90
7598;DHT22;3840;59.32098800;18.06423600;2023-11-19T03:45:07;-4.10;99.90
7598;DHT22;3840;59.32098800;18.06423600;2023-11-19T03:47:36;-4.10;99.90
7598;DHT22;3840;59.32098800;18.06423600;2023-11-19T03:50:02;-4.10;99.90
7598;DHT22;3840;59.32098800;18.06423600;2023-11-19T03:52:28;-4.20;99.90
7598;DHT22;3840;59.32098800;18.06423600;2023-11-19T03:54:57;-4.20;99.90
7598;DHT22;3840;59.32098800;18.06423600;2023-11-19T03:57:23;-3.90;99.90
7598;DHT22;3840;59.32098800;18.06423600;2023-11-19T03:59:49;-4.10;99.90
7598;DHT22;3840;59.32098800;18.06423600;2023-11-19T04:02:15;-4.10;99.90
7598;DHT22;3840;59.32098800;18.06423600;2023-11-19T04:04:41;-4.10;99.90
7598;DHT22;3840;59.32098800;18.06423600;2023-11-19T04:07:06;-4.10;99.90
7598;DHT22;3840;59.32098800;18.06423600;2023-11-19T04:09:32;-4.00;99.90
7598;DHT22;3840;59.32098800;18.06423600;2023-11-19T04:11:59;-4.00;99.90
7598;DHT22;3840;59.32098800;18.06423600;2023-11-19T04:14:25;-4.00;99.90
7598;DHT22;3840;59.32098800;18.06423600;2023-11-19T04:16:51;-4.00;99.90
7598;DHT22;3840;59.32098800;18.06423600;2023-11-19T04:19:18;-4.00;99.90
7598;DHT22;3840;59.32098800;18.06423600;2023-11-19T04:21:44;-4.10;99.90
7598;DHT22;3840;59.32098800;18.06423600;2023-11-19T04:24:11;-4.10;99.90
7598;DHT22;3840;59.32098800;18.06423600;2023-11-19T04:26:44;-4.20;99.90
7598;DHT22;3840;59.32098800;18.06423600;2023-11-19T04:29:14;-4.20;99.90
7598;DHT22;3840;59.32098800;18.06423600;2023-11-19T04:31:40;-4.10;99.90
7598;DHT22;3840;59.32098800;18.06423600;2023-11-19T04:34:06;-4.10;99.90
7598;DHT22;3840;59.32098800;18.06423600;2023-11-19T04:36:33;-4.00;99.90
7598;DHT22;3840;59.32098800;18.06423600;2023-11-19T04:38:59;-3.90;99.90
7598;DHT22;3840;59.32098800;18.06423600;2023-11-19T04:41:25;-3.90;99.90
7598;DHT22;3840;59.32098800;18.06423600;2023-11-19T04:43:53;-3.90;99.90
7598;DHT22;3840;59.32098800;18.06423600;2023-11-19T04:46:19;-3.80;99.90
7598;DHT22;3840;59.32098800;18.06423600;2023-11-19T04:48:45;-3.80;99.90
7598;DHT22;3840;59.32098800;18.06423600;2023-11-19T04:51:10;-3.80;99.90
7598;DHT22;3840;59.32098800;18.06423600;2023-11-19T04:53:36;-3.70;99.90
7598;DHT22;3840;59.32098800;18.06423600;2023-11-19T04:56:08;-3.70;99.90
7598;DHT22;3840;59.32098800;18.06423600;2023-11-19T04:58:34;-3.60;99.90
7598;DHT22;3840;59.32098800;18.06423600;2023-11-19T05:01:01;-3.50;99.90
7598;DHT22;3840;59.32098800;18.06423600;2023-11-19T05:03:27;-3.50;99.90
7598;DHT22;3840;59.32098800;18.06423600;2023-11-19T05:05:52;-3.40;99.90
7598;DHT22;3840;59.32098800;18.06423600;2023-11-19T05:08:19;-3.40;99.90
7598;DHT22;3840;59.32098800;18.06423600;2023-11-19T05:10:45;-3.30;99.90
7598;DHT22;3840;59.32098800;18.06423600;2023-11-19T05:13:10;-3.20;99.90
7598;DHT22;3840;59.32098800;18.06423600;2023-11-19T05:15:36;-3.20;99.90
7598;DHT22;3840;59.32098800;18.06423600;2023-11-19T05:18:02;-3.10;99.90
7598;DHT22;3840;59.32098800;18.06423600;2023-11-19T05:20:28;-3.00;99.90
7598;DHT22;3840;59.32098800;18.06423600;2023-11-19T05:22:54;-2.90;99.90
7598;DHT22;3840;59.32098800;18.06423600;2023-11-19T05:25:19;-3.00;99.90
7598;DHT22;3840;59.32098800;18.06423600;2023-11-19T05:27:48;-2.00;99.90
7598;DHT22;3840;59.32098800;18.06423600;2023-11-19T05:30:13;-2.80;99.90
7598;DHT22;3840;59.32098800;18.06423600;2023-11-19T05:32:39;-3.00;99.90
7598;DHT22;3840;59.32098800;18.06423600;2023-11-19T05:35:05;-2.90;99.90
7598;DHT22;3840;59.32098800;18.06423600;2023-11-19T05:37:31;-2.80;99.90
7598;DHT22;3840;59.32098800;18.06423600;2023-11-19T05:39:57;-2.80;99.90
7598;DHT22;3840;59.32098800;18.06423600;2023-11-19T05:42:22;-2.80;99.90
7598;DHT22;3840;59.32098800;18.06423600;2023-11-19T05:44:49;-2.80;99.90
7598;DHT22;3840;59.32098800;18.06423600;2023-11-19T05:47:15;-2.80;99.90
7598;DHT22;3840;59.32098800;18.06423600;2023-11-19T05:49:40;-2.80;99.90
7598;DHT22;3840;59.32098800;18.06423600;2023-11-19T05:52:06;-2.80;99.90
7598;DHT22;3840;59.32098800;18.06423600;2023-11-19T05:54:33;-2.80;99.90
7598;DHT22;3840;59.32098800;18.06423600;2023-11-19T05:57:06;-2.70;99.90
7598;DHT22;3840;59.32098800;18.06423600;2023-11-19T05:59:36;-2.70;99.90
7598;DHT22;3840;59.32098800;18.06423600;2023-11-19T06:02:02;-2.60;99.90
7598;DHT22;3840;59.32098800;18.06423600;2023-11-19T06:04:28;-2.60;99.90
7598;DHT22;3840;59.32098800;18.06423600;2023-11-19T06:06:54;-2.60;99.90
7598;DHT22;3840;59.32098800;18.06423600;2023-11-19T06:09:22;-2.60;99.90
7598;DHT22;3840;59.32098800;18.06423600;2023-11-19T06:11:49;-2.60;99.90
7598;DHT22;3840;59.32098800;18.06423600;2023-11-19T06:14:16;-2.50;99.90
7598;DHT22;3840;59.32098800;18.06423600;2023-11-19T06:16:42;-2.60;99.90
7598;DHT22;3840;59.32098800;18.06423600;2023-11-19T06:19:07;-2.40;99.90
7598;DHT22;3840;59.32098800;18.06423600;2023-11-19T06:21:33;-2.50;99.90
7598;DHT22;3840;59.32098800;18.06423600;2023-11-19T06:24:01;-2.50;99.90
7598;DHT22;3840;59.32098800;18.06423600;2023-11-19T06:26:27;-2.50;99.90
7598;DHT22;3840;59.32098800;18.06423600;2023-11-19T06:28:52;-2.60;99.90
7598;DHT22;3840;59.32098800;18.06423600;2023-11-19T06:31:18;-2.50;99.90
7598;DHT22;3840;59.32098800;18.06423600;2023-11-19T06:33:44;-2.50;99.90
7598;DHT22;3840;59.32098800;18.06423600;2023-11-19T06:36:09;-2.40;99.90
7598;DHT22;3840;59.32098800;18.06423600;2023-11-19T06:38:35;-2.30;99.90
7598;DHT22;3840;59.32098800;18.06423600;2023-11-19T06:41:01;-2.40;99.90
7598;DHT22;3840;59.32098800;18.06423600;2023-11-19T06:43:27;-2.40;99.90
7598;DHT22;3840;59.32098800;18.06423600;2023-11-19T06:45:54;-2.40;99.90
7598;DHT22;3840;59.32098800;18.06423600;2023-11-19T06:48:19;-2.40;99.90
7598;DHT22;3840;59.32098800;18.06423600;2023-11-19T06:50:45;-2.30;99.90
7598;DHT22;3840;59.32098800;18.06423600;2023-11-19T06:53:11;-2.30;99.90
7598;DHT22;3840;59.32098800;18.06423600;2023-11-19T06:55:37;-2.30;99.90
7598;DHT22;3840;59.32098800;18.06423600;2023-11-19T06:58:02;-2.10;99.90
7598;DHT22;3840;59.32098800;18.06423600;2023-11-19T07:00:29;-2.40;99.90
7598;DHT22;3840;59.32098800;18.06423600;2023-11-19T07:02:55;-2.40;99.90
7598;DHT22;3840;59.32098800;18.06423600;2023-11-19T07:05:21;-2.40;99.90
7598;DHT22;3840;59.32098800;18.06423600;2023-11-19T07:07:46;-2.50;99.90
7598;DHT22;3840;59.32098800;18.06423600;2023-11-19T07:10:13;-2.50;99.90
7598;DHT22;3840;59.32098800;18.06423600;2023-11-19T07:12:38;-2.50;99.90
7598;DHT22;3840;59.32098800;18.06423600;2023-11-19T07:15:04;-2.50;99.90
7598;DHT22;3840;59.32098800;18.06423600;2023-11-19T07:17:34;-2.50;99.90
7598;DHT22;3840;59.32098800;18.06423600;2023-11-19T07:20:00;-2.30;99.90
7598;DHT22;3840;59.32098800;18.06423600;2023-11-19T07:22:26;-2.50;99.90
7598;DHT22;3840;59.32098800;18.06423600;2023-11-19T07:24:54;-2.50;99.90
7598;DHT22;3840;59.32098800;18.06423600;2023-11-19T07:27:20;-2.60;99.90
7598;DHT22;3840;59.32098800;18.06423600;2023-11-19T07:29:45;-2.60;99.90
7598;DHT22;3840;59.32098800;18.06423600;2023-11-19T07:32:11;-2.60;99.90
7598;DHT22;3840;59.32098800;18.06423600;2023-11-19T07:34:38;-2.50;99.90
7598;DHT22;3840;59.32098800;18.06423600;2023-11-19T07:37:05;-2.60;99.90
7598;DHT22;3840;59.32098800;18.06423600;2023-11-19T07:39:31;-2.50;99.90
7598;DHT22;3840;59.32098800;18.06423600;2023-11-19T07:41:56;-2.50;99.90
7598;DHT22;3840;59.32098800;18.06423600;2023-11-19T07:44:22;-2.50;99.90
7598;DHT22;3840;59.32098800;18.06423600;2023-11-19T07:46:48;-2.50;99.90
7598;DHT22;3840;59.32098800;18.06423600;2023-11-19T07:49:15;-2.50;99.90
7598;DHT22;3840;59.32098800;18.06423600;2023-11-19T07:51:40;-2.40;99.90
7598;DHT22;3840;59.32098800;18.06423600;2023-11-19T07:54:07;-2.50;99.90
7598;DHT22;3840;59.32098800;18.06423600;2023-11-19T07:56:33;-2.50;99.90
7598;DHT22;3840;59.32098800;18.06423600;2023-11-19T07:59:02;-2.50;99.90
7598;DHT22;3840;59.32098800;18.06423600;2023-11-19T08:01:28;-2.50;99.90
7598;DHT22;3840;59.32098800;18.06423600;2023-11-19T08:03:54;-2.50;99.90
7598;DHT22;3840;59.32098800;18.06423600;2023-11-19T08:06:20;-2.50;99.90
7598;DHT22;3840;59.32098800;18.06423600;2023-11-19T08:08:45;-2.50;99.90
7598;DHT22;3840;59.32098800;18.06423600;2023-11-19T08:11:13;-2.50;99.90
7598;DHT22;3840;59.32098800;18.06423600;2023-11-19T08:13:39;-2.50;99.90
7598;DHT22;3840;59.32098800;18.06423600;2023-11-19T08:16:05;-2.40;99.90
7598;DHT22;3840;59.32098800;18.06423600;2023-11-19T08:18:31;-2.40;99.90
7598;DHT22;3840;59.32098800;18.06423600;2023-11-19T08:20:56;-2.40;99.90
7598;DHT22;3840;59.32098800;18.06423600;2023-11-19T08:23:23;-2.30;99.90
7598;DHT22;3840;59.32098800;18.06423600;2023-11-19T08:25:51;-2.30;99.90
7598;DHT22;3840;59.32098800;18.06423600;2023-11-19T08:28:16;-2.20;99.90
7598;DHT22;3840;59.32098800;18.06423600;2023-11-19T08:30:42;-2.20;99.90
7598;DHT22;3840;59.32098800;18.06423600;2023-11-19T08:33:09;-2.20;99.90
7598;DHT22;3840;59.32098800;18.06423600;2023-11-19T08:35:35;-2.10;99.90
7598;DHT22;3840;59.32098800;18.06423600;2023-11-19T08:38:01;-2.10;99.90
7598;DHT22;3840;59.32098800;18.06423600;2023-11-19T08:40:27;-2.20;99.90
7598;DHT22;3840;59.32098800;18.06423600;2023-11-19T08:42:53;-2.10;99.90
7598;DHT22;3840;59.32098800;18.06423600;2023-11-19T08:45:18;-2.10;99.90
7598;DHT22;3840;59.32098800;18.06423600;2023-11-19T08:47:44;-2.10;99.90
7598;DHT22;3840;59.32098800;18.06423600;2023-11-19T08:50:11;-2.10;99.90
7598;DHT22;3840;59.32098800;18.06423600;2023-11-19T08:52:37;-1.90;99.90
7598;DHT22;3840;59.32098800;18.06423600;2023-11-19T08:55:03;-2.10;99.90
7598;DHT22;3840;59.32098800;18.06423600;2023-11-19T08:57:31;-2.70;99.90
7598;DHT22;3840;59.32098800;18.06423600;2023-11-19T08:59:56;-1.90;99.90
7598;DHT22;3840;59.32098800;18.06423600;2023-11-19T09:02:22;-1.90;99.90
7598;DHT22;3840;59.32098800;18.06423600;2023-11-19T09:04:48;-1.90;99.90
7598;DHT22;3840;59.32098800;18.06423600;2023-11-19T09:07:13;-1.90;99.90
7598;DHT22;3840;59.32098800;18.06423600;2023-11-19T09:09:39;-1.90;99.90
7598;DHT22;3840;59.32098800;18.06423600;2023-11-19T09:12:05;-1.90;99.90
7598;DHT22;3840;59.32098800;18.06423600;2023-11-19T09:14:31;-1.90;99.90
7598;DHT22;3840;59.32098800;18.06423600;2023-11-19T09:16:57;-1.90;99.90
7598;DHT22;3840;59.32098800;18.06423600;2023-11-19T09:19:24;-1.70;99.90
7598;DHT22;3840;59.32098800;18.06423600;2023-11-19T09:21:49;-1.70;99.90
7598;DHT22;3840;59.32098800;18.06423600;2023-11-19T09:24:15;-1.70;99.90
7598;DHT22;3840;59.32098800;18.06423600;2023-11-19T09:26:41;-1.60;99.90
7598;DHT22;3840;59.32098800;18.06423600;2023-11-19T09:29:10;-1.60;99.90
7598;DHT22;3840;59.32098800;18.06423600;2023-11-19T09:31:38;-1.60;99.90
7598;DHT22;3840;59.32098800;18.06423600;2023-11-19T09:34:04;-1.60;99.90
7598;DHT22;3840;59.32098800;18.06423600;2023-11-19T09:36:30;-1.50;99.90
7598;DHT22;3840;59.32098800;18.06423600;2023-11-19T09:38:56;-1.40;99.90
7598;DHT22;3840;59.32098800;18.06423600;2023-11-19T09:41:23;-1.30;99.90
7598;DHT22;3840;59.32098800;18.06423600;2023-11-19T09:43:51;-1.30;99.90
7598;DHT22;3840;59.32098800;18.06423600;2023-11-19T09:46:18;-1.20;99.90
7598;DHT22;3840;59.32098800;18.06423600;2023-11-19T09:48:44;-1.20;99.90
7598;DHT22;3840;59.32098800;18.06423600;2023-11-19T09:51:11;-1.20;99.90
7598;DHT22;3840;59.32098800;18.06423600;2023-11-19T09:53:37;-1.30;99.90
7598;DHT22;3840;59.32098800;18.06423600;2023-11-19T09:56:04;-1.20;99.90
7598;DHT22;3840;59.32098800;18.06423600;2023-11-19T09:58:32;-1.20;99.90
7598;DHT22;3840;59.32098800;18.06423600;2023-11-19T10:00:59;-1.20;99.90
7598;DHT22;3840;59.32098800;18.06423600;2023-11-19T10:03:27;-1.30;99.90
7598;DHT22;3840;59.32098800;18.06423600;2023-11-19T10:05:56;-1.20;99.90
7598;DHT22;3840;59.32098800;18.06423600;2023-11-19T10:08:22;-1.20;99.90
7598;DHT22;3840;59.32098800;18.06423600;2023-11-19T10:10:48;-1.30;99.90
7598;DHT22;3840;59.32098800;18.06423600;2023-11-19T10:13:14;-1.20;99.90
7598;DHT22;3840;59.32098800;18.06423600;2023-11-19T10:15:40;-1.10;99.90
7598;DHT22;3840;59.32098800;18.06423600;2023-11-19T10:18:06;-1.10;99.90
7598;DHT22;3840;59.32098800;18.06423600;2023-11-19T10:20:40;-1.30;99.90
7598;DHT22;3840;59.32098800;18.06423600;2023-11-19T10:23:06;-1.40;99.90
7598;DHT22;3840;59.32098800;18.06423600;2023-11-19T10:25:33;-1.20;99.90
7598;DHT22;3840;59.32098800;18.06423600;2023-11-19T10:28:00;-1.10;99.90
7598;DHT22;3840;59.32098800;18.06423600;2023-11-19T10:30:27;-1.00;99.90
7598;DHT22;3840;59.32098800;18.06423600;2023-11-19T10:33:07;-1.10;99.90
7598;DHT22;3840;59.32098800;18.06423600;2023-11-19T10:35:35;-1.10;99.90
7598;DHT22;3840;59.32098800;18.06423600;2023-11-19T10:38:14;-1.20;99.90
7598;DHT22;3840;59.32098800;18.06423600;2023-11-19T10:40:43;-0.80;99.90
7598;DHT22;3840;59.32098800;18.06423600;2023-11-19T10:43:09;-1.30;99.90
7598;DHT22;3840;59.32098800;18.06423600;2023-11-19T10:45:38;-1.40;99.90
7598;DHT22;3840;59.32098800;18.06423600;2023-11-19T10:48:05;-1.30;99.90
7598;DHT22;3840;59.32098800;18.06423600;2023-11-19T10:50:33;-1.30;99.90
7598;DHT22;3840;59.32098800;18.06423600;2023-11-19T10:53:00;-1.50;99.90
7598;DHT22;3840;59.32098800;18.06423600;2023-11-19T10:55:30;-1.40;99.90
7598;DHT22;3840;59.32098800;18.06423600;2023-11-19T11:00:29;-1.40;99.90
7598;DHT22;3840;59.32098800;18.06423600;2023-11-19T11:03:00;-1.50;99.90
7598;DHT22;3840;59.32098800;18.06423600;2023-11-19T11:05:26;-1.50;99.90
7598;DHT22;3840;59.32098800;18.06423600;2023-11-19T11:07:55;-1.50;99.90
7598;DHT22;3840;59.32098800;18.06423600;2023-11-19T11:10:25;-1.40;99.90
7598;DHT22;3840;59.32098800;18.06423600;2023-11-19T11:12:52;-1.50;99.90
7598;DHT22;3840;59.32098800;18.06423600;2023-11-19T11:15:27;-1.50;99.90
7598;DHT22;3840;59.32098800;18.06423600;2023-11-19T11:17:59;-1.50;99.90
7598;DHT22;3840;59.32098800;18.06423600;2023-11-19T11:20:30;-1.60;99.90
7598;DHT22;3840;59.32098800;18.06423600;2023-11-19T11:31:04;-1.60;99.90
7598;DHT22;3840;59.32098800;18.06423600;2023-11-19T11:33:56;-1.50;99.90
7598;DHT22;3840;59.32098800;18.06423600;2023-11-19T11:36:25;-1.60;99.90
7598;DHT22;3840;59.32098800;18.06423600;2023-11-19T11:38:52;-1.60;99.90
7598;DHT22;3840;59.32098800;18.06423600;2023-11-19T11:41:22;-1.60;99.90
7598;DHT22;3840;59.32098800;18.06423600;2023-11-19T11:49:08;-1.70;99.90
7598;DHT22;3840;59.32098800;18.06423600;2023-11-19T11:54:11;-1.70;99.90
7598;DHT22;3840;59.32098800;18.06423600;2023-11-19T11:57:09;-1.60;99.90
7598;DHT22;3840;59.32098800;18.06423600;2023-11-19T12:02:12;-1.40;99.90
7598;DHT22;3840;59.32098800;18.06423600;2023-11-19T12:04:41;-1.80;99.90
7598;DHT22;3840;59.32098800;18.06423600;2023-11-19T12:07:16;-1.80;99.90
7598;DHT22;3840;59.32098800;18.06423600;2023-11-19T12:09:45;-1.70;99.90
7598;DHT22;3840;59.32098800;18.06423600;2023-11-19T12:12:25;-1.70;99.90
7598;DHT22;3840;59.32098800;18.06423600;2023-11-19T12:20:01;-1.80;99.90
7598;DHT22;3840;59.32098800;18.06423600;2023-11-19T12:22:27;-1.80;99.90
7598;DHT22;3840;59.32098800;18.06423600;2023-11-19T12:24:54;-1.80;99.90
7598;DHT22;3840;59.32098800;18.06423600;2023-11-19T12:27:20;-1.80;99.90
7598;DHT22;3840;59.32098800;18.06423600;2023-11-19T12:29:49;-1.80;99.90
7598;DHT22;3840;59.32098800;18.06423600;2023-11-19T12:32:15;-1.80;99.90
7598;DHT22;3840;59.32098800;18.06423600;2023-11-19T12:34:41;-1.60;99.90
7598;DHT22;3840;59.32098800;18.06423600;2023-11-19T12:37:07;-1.90;99.90
7598;DHT22;3840;59.32098800;18.06423600;2023-11-19T12:39:34;-1.80;99.90
7598;DHT22;3840;59.32098800;18.06423600;2023-11-19T12:42:00;-1.80;99.90
7598;DHT22;3840;59.32098800;18.06423600;2023-11-19T12:44:26;-1.80;99.90
7598;DHT22;3840;59.32098800;18.06423600;2023-11-19T12:47:07;-1.70;99.90
7598;DHT22;3840;59.32098800;18.06423600;2023-11-19T12:49:33;-1.70;99.90
7598;DHT22;3840;59.32098800;18.06423600;2023-11-19T12:51:59;-1.70;99.90
7598;DHT22;3840;59.32098800;18.06423600;2023-11-19T12:54:37;-1.70;99.90
7598;DHT22;3840;59.32098800;18.06423600;2023-11-19T12:57:04;-1.70;99.90
7598;DHT22;3840;59.32098800;18.06423600;2023-11-19T12:59:30;-1.60;99.90
7598;DHT22;3840;59.32098800;18.06423600;2023-11-19T13:01:59;-1.50;99.90
7598;DHT22;3840;59.32098800;18.06423600;2023-11-19T13:04:29;-1.30;99.90
7598;DHT22;3840;59.32098800;18.06423600;2023-11-19T13:06:58;-1.40;99.90
7598;DHT22;3840;59.32098800;18.06423600;2023-11-19T13:09:25;-1.40;99.90
7598;DHT22;3840;59.32098800;18.06423600;2023-11-19T13:11:52;-1.40;99.90
7598;DHT22;3840;59.32098800;18.06423600;2023-11-19T13:14:18;-1.40;99.90
7598;DHT22;3840;59.32098800;18.06423600;2023-11-19T13:16:44;-1.30;99.90
7598;DHT22;3840;59.32098800;18.06423600;2023-11-19T13:19:13;-1.30;99.90
7598;DHT22;3840;59.32098800;18.06423600;2023-11-19T13:21:39;-1.10;99.90
7598;DHT22;3840;59.32098800;18.06423600;2023-11-19T13:24:06;-1.40;99.90
7598;DHT22;3840;59.32098800;18.06423600;2023-11-19T13:26:32;-1.40;99.90
7598;DHT22;3840;59.32098800;18.06423600;2023-11-19T13:28:57;-1.30;99.90
7598;DHT22;3840;59.32098800;18.06423600;2023-11-19T13:31:23;-1.10;99.90
7598;DHT22;3840;59.32098800;18.06423600;2023-11-19T13:33:49;-1.30;99.90
7598;DHT22;3840;59.32098800;18.06423600;2023-11-19T13:36:15;-1.20;99.90
7598;DHT22;3840;59.32098800;18.06423600;2023-11-19T13:38:40;-1.30;99.90
7598;DHT22;3840;59.32098800;18.06423600;2023-11-19T13:41:10;-1.20;99.90
7598;DHT22;3840;59.32098800;18.06423600;2023-11-19T13:43:37;-1.40;99.90
7598;DHT22;3840;59.32098800;18.06423600;2023-11-19T13:46:03;-1.30;99.90
7598;DHT22;3840;59.32098800;18.06423600;2023-11-19T13:48:29;-1.30;99.90
7598;DHT22;3840;59.32098800;18.06423600;2023-11-19T13:50:55;-1.30;99.90
7598;DHT22;3840;59.32098800;18.06423600;2023-11-19T13:53:21;-1.30;99.90
7598;DHT22;3840;59.32098800;18.06423600;2023-11-19T13:55:47;-1.40;99.90
7598;DHT22;3840;59.32098800;18.06423600;2023-11-19T13:58:13;-1.30;99.90
7598;DHT22;3840;59.32098800;18.06423600;2023-11-19T14:00:39;-1.30;99.90